createdAt,value
2022-11-26T00:01:01.740Z,102285.63
2022-11-26T00:03:29.026Z,102289.72
2022-11-26T00:05:57.898Z,102303.19
2022-11-26T00:08:33.598Z,102305.09
2022-11-26T00:11:03.412Z,102309.28
2022-11-26T00:13:31.892Z,102304.56
2022-11-26T00:15:59.140Z,102309.50
2022-11-26T00:18:26.786Z,102299.63
2022-11-26T00:20:56.199Z,102312.22
2022-11-26T00:23:25.470Z,102312.25
2022-11-26T00:25:58.297Z,102319.13
2022-11-26T00:28:30.739Z,102305.94
2022-11-26T00:31:00.040Z,102311.47
2022-11-26T00:33:28.772Z,102321.97
2022-11-26T00:35:59.389Z,102323.38
2022-11-26T00:38:26.591Z,102316.41
2022-11-26T00:40:53.807Z,102313.72
2022-11-26T00:43:21.083Z,102314.72
2022-11-26T00:45:50.453Z,102316.66
2022-11-26T00:48:18.032Z,102312.81
2022-11-26T00:50:48.438Z,102320.41
2022-11-26T00:53:18.194Z,102324.94
2022-11-26T00:55:48.069Z,102319.41
2022-11-26T00:58:28.030Z,102319.66
2022-11-26T01:01:00.213Z,102321.88
2022-11-26T01:03:27.513Z,102329.59
2022-11-26T01:05:57.874Z,102330.72
2022-11-26T01:08:35.450Z,102329.28
2022-11-26T01:11:04.709Z,102335.56
2022-11-26T01:13:32.801Z,102337.72
2022-11-26T01:16:01.250Z,102329.78
2022-11-26T01:18:29.145Z,102330.63
2022-11-26T01:20:56.405Z,102333.09
2022-11-26T01:23:23.665Z,102328.97
2022-11-26T01:25:50.832Z,102327.53
2022-11-26T01:28:19.371Z,102325.50
2022-11-26T01:30:46.638Z,102330.56
2022-11-26T01:33:13.938Z,102327.78
2022-11-26T01:35:41.177Z,102330.59
2022-11-26T01:38:12.865Z,102336.09
2022-11-26T01:40:49.646Z,102323.63
2022-11-26T01:43:25.269Z,102325.03
2022-11-26T01:45:52.570Z,102328.31
2022-11-26T01:48:28.719Z,102323.63
2022-11-26T01:51:07.198Z,102316.81
2022-11-26T01:54:11.986Z,102323.38
2022-11-26T01:56:41.715Z,102329.72
2022-11-26T01:59:28.366Z,102331.91
2022-11-26T02:01:58.030Z,102335.22
2022-11-26T02:04:27.506Z,102332.72
2022-11-26T02:06:56.434Z,102328.34
2022-11-26T02:09:24.389Z,102330.16
2022-11-26T02:11:51.860Z,102327.69
2022-11-26T02:14:21.991Z,102334.06
2022-11-26T02:17:21.370Z,102333.19
2022-11-26T02:20:19.939Z,102331.56
2022-11-26T02:22:49.918Z,102326.59
2022-11-26T02:25:48.060Z,102331.53
2022-11-26T02:28:43.050Z,102321.06
2022-11-26T02:31:47.957Z,102313.56
2022-11-26T02:34:18.388Z,102308.41
2022-11-26T02:36:55.701Z,102310.06
2022-11-26T02:39:25.282Z,102314.78
2022-11-26T02:41:58.309Z,102320.53
2022-11-26T02:44:32.524Z,102323.72
2022-11-26T02:47:05.214Z,102332.94
2022-11-26T02:49:33.539Z,102331.91
2022-11-26T02:52:03.665Z,102333.47
2022-11-26T02:54:30.748Z,102327.59
2022-11-26T02:56:58.305Z,102329.56
2022-11-26T02:59:26.064Z,102334.06
2022-11-26T03:02:03.812Z,102335.69
2022-11-26T03:04:34.872Z,102341.59
2022-11-26T03:07:04.402Z,102337.72
2022-11-26T03:09:42.889Z,102330.25
2022-11-26T03:12:11.105Z,102334.56
2022-11-26T03:14:38.764Z,102331.25
2022-11-26T03:17:06.238Z,102323.38
2022-11-26T03:19:33.511Z,102322.56
2022-11-26T03:22:00.720Z,102329.22
2022-11-26T03:24:27.875Z,102325.81
2022-11-26T03:26:55.087Z,102326.06
2022-11-26T03:29:22.276Z,102327.50
2022-11-26T03:31:49.621Z,102330.03
2022-11-26T03:34:16.930Z,102336.91
2022-11-26T03:36:44.382Z,102329.78
2022-11-26T03:39:11.620Z,102333.44
2022-11-26T03:41:39.325Z,102335.78
2022-11-26T03:44:06.519Z,102331.94
2022-11-26T03:46:33.732Z,102333.09
2022-11-26T03:49:00.928Z,102332.50
2022-11-26T03:51:28.221Z,102328.78
2022-11-26T03:53:55.439Z,102329.59
2022-11-26T03:56:22.670Z,102336.13
2022-11-26T03:58:49.937Z,102333.63
2022-11-26T04:01:17.206Z,102335.44
2022-11-26T04:03:44.514Z,102335.44
2022-11-26T04:06:12.766Z,102333.03
2022-11-26T04:08:39.980Z,102335.97
2022-11-26T04:11:07.173Z,102331.31
2022-11-26T04:13:34.734Z,102343.88
2022-11-26T04:16:01.933Z,102349.41
2022-11-26T04:18:29.148Z,102342.88
2022-11-26T04:20:56.480Z,102340.38
2022-11-26T04:23:23.658Z,102336.00
2022-11-26T04:25:50.904Z,102339.34
2022-11-26T04:28:18.119Z,102333.06
2022-11-26T04:30:45.361Z,102333.19
2022-11-26T04:33:12.581Z,102325.28
2022-11-26T04:35:39.839Z,102327.09
2022-11-26T04:38:07.153Z,102334.25
2022-11-26T04:40:34.534Z,102340.56
2022-11-26T04:43:01.819Z,102341.56
2022-11-26T04:45:29.244Z,102344.16
2022-11-26T04:47:56.567Z,102346.72
2022-11-26T04:50:24.168Z,102348.47
2022-11-26T04:52:51.395Z,102338.19
2022-11-26T04:55:18.937Z,102335.00
2022-11-26T04:57:49.065Z,102344.31
2022-11-26T05:00:16.955Z,102348.63
2022-11-26T05:02:44.343Z,102351.28
2022-11-26T05:05:13.060Z,102356.06
2022-11-26T05:07:40.782Z,102360.78
2022-11-26T05:10:08.914Z,102366.34
2022-11-26T05:12:36.815Z,102364.88
2022-11-26T05:15:04.480Z,102357.50
2022-11-26T05:17:32.502Z,102353.84
2022-11-26T05:19:59.655Z,102365.16
2022-11-26T05:22:26.908Z,102368.38
2022-11-26T05:24:54.195Z,102378.97
2022-11-26T05:27:21.417Z,102382.31
2022-11-26T05:29:48.652Z,102384.47
2022-11-26T05:32:16.160Z,102385.28
2022-11-26T05:34:43.363Z,102382.16
2022-11-26T05:37:10.803Z,102381.50
2022-11-26T05:39:38.008Z,102380.63
2022-11-26T05:42:09.299Z,102373.69
2022-11-26T05:44:37.953Z,102379.56
2022-11-26T05:47:05.479Z,102387.41
2022-11-26T05:49:32.871Z,102398.97
2022-11-26T05:52:00.189Z,102405.13
2022-11-26T05:54:27.374Z,102400.31
2022-11-26T05:56:59.956Z,102394.75
2022-11-26T05:59:27.881Z,102396.38
2022-11-26T06:01:55.123Z,102396.16
2022-11-26T06:04:22.678Z,102399.88
2022-11-26T06:06:50.092Z,102401.78
2022-11-26T06:09:17.359Z,102405.28
2022-11-26T06:11:44.575Z,102412.50
2022-11-26T06:14:12.157Z,102418.03
2022-11-26T06:16:39.431Z,102431.03
2022-11-26T06:19:06.752Z,102433.06
2022-11-26T06:21:34.076Z,102447.91
2022-11-26T06:24:01.274Z,102438.44
2022-11-26T06:26:28.547Z,102435.97
2022-11-26T06:28:55.727Z,102422.03
2022-11-26T06:31:23.039Z,102408.88
2022-11-26T06:33:55.153Z,102403.16
2022-11-26T06:36:23.227Z,102410.50
2022-11-26T06:38:50.599Z,102423.50
2022-11-26T06:41:20.829Z,102440.13
2022-11-26T06:43:48.180Z,102443.41
2022-11-26T06:46:15.620Z,102438.53
2022-11-26T06:48:43.064Z,102441.28
2022-11-26T06:51:13.464Z,102449.22
2022-11-26T06:53:41.077Z,102459.50
2022-11-26T06:56:17.750Z,102459.66
2022-11-26T06:58:46.928Z,102458.19
2022-11-26T07:01:17.227Z,102453.41
2022-11-26T07:03:44.680Z,102456.09
2022-11-26T07:06:20.413Z,102450.16
2022-11-26T07:08:48.626Z,102444.72
2022-11-26T07:11:16.576Z,102442.47
2022-11-26T07:13:43.941Z,102450.81
2022-11-26T07:16:11.497Z,102456.44
2022-11-26T07:18:38.904Z,102459.72
2022-11-26T07:21:11.696Z,102469.47
2022-11-26T07:23:39.720Z,102469.75
2022-11-26T07:26:07.988Z,102471.22
2022-11-26T07:28:35.893Z,102472.66
2022-11-26T07:31:05.444Z,102463.69
2022-11-26T07:33:32.719Z,102465.97
2022-11-26T07:36:08.467Z,102470.72
2022-11-26T07:38:35.748Z,102467.06
2022-11-26T07:41:04.997Z,102457.81
2022-11-26T07:43:34.889Z,102458.78
2022-11-26T07:46:03.577Z,102455.25
2022-11-26T07:48:31.930Z,102447.91
2022-11-26T07:51:00.049Z,102446.25
2022-11-26T07:53:32.050Z,102445.16
2022-11-26T07:55:59.312Z,102444.38
2022-11-26T07:58:29.308Z,102445.91
2022-11-26T08:00:56.547Z,102439.22
2022-11-26T08:03:23.707Z,102434.81
2022-11-26T08:05:51.164Z,102444.88
2022-11-26T08:08:18.383Z,102449.31
2022-11-26T08:10:45.590Z,102458.66
2022-11-26T08:13:13.038Z,102461.28
2022-11-26T08:15:40.250Z,102468.28
2022-11-26T08:18:07.461Z,102482.53
2022-11-26T08:20:34.674Z,102487.81
2022-11-26T08:23:01.909Z,102494.88
2022-11-26T08:25:29.315Z,102485.81
2022-11-26T08:27:56.591Z,102487.13
2022-11-26T08:30:23.815Z,102484.31
2022-11-26T08:32:51.167Z,102482.91
2022-11-26T08:35:18.396Z,102488.97
2022-11-26T08:37:45.554Z,102480.47
2022-11-26T08:40:14.165Z,102478.78
2022-11-26T08:42:41.777Z,102467.19
2022-11-26T08:45:09.316Z,102473.03
2022-11-26T08:47:36.519Z,102461.78
2022-11-26T08:50:04.864Z,102464.13
2022-11-26T08:52:32.075Z,102481.22
2022-11-26T08:54:59.455Z,102478.03
2022-11-26T08:57:26.748Z,102480.13
2022-11-26T08:59:55.921Z,102484.31
2022-11-26T09:02:23.495Z,102488.75
2022-11-26T09:04:50.729Z,102488.34
2022-11-26T09:07:18.015Z,102479.75
2022-11-26T09:09:45.331Z,102486.16
2022-11-26T09:12:12.589Z,102487.16
2022-11-26T09:14:40.899Z,102487.41
2022-11-26T09:17:09.950Z,102491.34
2022-11-26T09:19:37.121Z,102487.03
2022-11-26T09:22:04.495Z,102490.84
2022-11-26T09:24:31.730Z,102486.03
2022-11-26T09:27:04.152Z,102473.78
2022-11-26T09:29:34.605Z,102485.34
2022-11-26T09:32:22.531Z,102473.97
2022-11-26T09:34:49.009Z,102483.44
2022-11-26T09:37:16.179Z,102485.03
2022-11-26T09:39:43.453Z,102485.28
2022-11-26T09:42:23.066Z,102481.13
2022-11-26T09:44:57.224Z,102482.53
2022-11-26T09:47:28.971Z,102482.81
2022-11-26T09:49:59.536Z,102476.53
2022-11-26T09:52:31.101Z,102477.69
2022-11-26T09:55:10.218Z,102459.47
2022-11-26T09:58:05.172Z,102467.31
2022-11-26T10:00:42.468Z,102459.47
2022-11-26T10:03:16.237Z,102466.44
2022-11-26T10:05:55.866Z,102468.00
2022-11-26T10:09:00.923Z,102459.88
2022-11-26T10:11:49.108Z,102471.19
2022-11-26T10:14:44.330Z,102467.00
2022-11-26T10:17:11.799Z,102470.72
2022-11-26T10:19:58.143Z,102470.00
2022-11-26T10:22:34.437Z,102468.13
2022-11-26T10:25:03.859Z,102474.28
2022-11-26T10:27:34.110Z,102469.69
2022-11-26T10:30:02.629Z,102466.63
2022-11-26T10:32:39.359Z,102456.94
2022-11-26T10:35:07.156Z,102442.91
2022-11-26T10:37:34.426Z,102435.38
2022-11-26T10:40:20.214Z,102434.84
2022-11-26T10:43:02.059Z,102438.13
2022-11-26T10:45:40.984Z,102444.13
2022-11-26T10:48:14.671Z,102454.16
2022-11-26T10:50:48.042Z,102437.28
2022-11-26T10:53:21.402Z,102439.72
2022-11-26T10:55:49.706Z,102445.59
2022-11-26T10:58:20.580Z,102447.94
2022-11-26T11:00:50.818Z,102460.16
2022-11-26T11:03:38.164Z,102462.53
2022-11-26T11:06:12.832Z,102465.59
2022-11-26T11:08:40.084Z,102458.28
2022-11-26T11:11:19.097Z,102457.19
2022-11-26T11:13:47.520Z,102448.66
2022-11-26T11:16:20.249Z,102446.38
2022-11-26T11:18:58.841Z,102438.56
2022-11-26T11:21:34.249Z,102432.31
2022-11-26T11:24:09.250Z,102435.78
2022-11-26T11:27:03.172Z,102429.44
2022-11-26T11:29:35.344Z,102418.72
2022-11-26T11:32:05.702Z,102418.78
2022-11-26T11:34:42.455Z,102422.97
2022-11-26T11:37:20.852Z,102418.78
2022-11-26T11:40:04.396Z,102423.28
2022-11-26T11:42:32.521Z,102427.81
2022-11-26T11:45:00.594Z,102424.19
2022-11-26T11:47:31.227Z,102429.53
2022-11-26T11:50:20.264Z,102434.00
2022-11-26T11:53:14.878Z,102444.22
2022-11-26T11:55:50.749Z,102448.34
2022-11-26T11:58:23.951Z,102435.41
2022-11-26T12:01:00.169Z,102433.53
2022-11-26T12:03:45.711Z,102437.59
2022-11-26T12:09:39.197Z,102441.31
2022-11-26T12:12:26.587Z,102445.72
2022-11-26T12:15:00.647Z,102443.31
2022-11-26T12:17:36.060Z,102438.44
2022-11-26T12:20:08.967Z,102434.22
2022-11-26T12:22:48.275Z,102431.19
2022-11-26T12:25:36.673Z,102427.63
2022-11-26T12:28:22.678Z,102419.97
2022-11-26T12:31:01.598Z,102425.75
2022-11-26T12:33:35.886Z,102422.75
2022-11-26T12:36:12.504Z,102419.84
2022-11-26T12:38:45.414Z,102412.97
2022-11-26T12:41:52.625Z,102403.34
2022-11-26T12:44:41.568Z,102410.84
2022-11-26T12:47:38.096Z,102411.91
2022-11-26T12:50:05.668Z,102412.22
2022-11-26T12:52:42.347Z,102411.63
2022-11-26T12:56:00.863Z,102403.38
2022-11-26T12:58:46.336Z,102397.25
2022-11-26T13:01:13.695Z,102401.63
2022-11-26T13:03:41.477Z,102389.72
2022-11-26T13:06:14.674Z,102393.06
2022-11-26T13:09:09.280Z,102396.22
2022-11-26T13:11:39.486Z,102394.59
2022-11-26T13:14:12.454Z,102395.25
2022-11-26T13:17:01.971Z,102393.44
2022-11-26T13:19:41.962Z,102382.72
2022-11-26T13:22:18.374Z,102387.97
2022-11-26T13:24:53.269Z,102371.19
2022-11-26T13:27:58.238Z,102352.28
2022-11-26T13:30:38.938Z,102356.97
2022-11-26T13:33:27.126Z,102349.22
2022-11-26T13:36:24.312Z,102344.06
2022-11-26T13:39:10.344Z,102358.13
2022-11-26T13:41:56.168Z,102351.78
2022-11-26T13:45:00.928Z,102345.19
2022-11-26T13:47:30.936Z,102342.72
2022-11-26T13:50:13.220Z,102340.81
2022-11-26T13:52:53.732Z,102334.75
2022-11-26T13:55:37.632Z,102329.22
2022-11-26T13:58:06.414Z,102324.81
2022-11-26T14:00:35.338Z,102324.78
2022-11-26T14:03:03.340Z,102321.22
2022-11-26T14:05:48.849Z,102322.31
2022-11-26T14:08:36.551Z,102313.78
2022-11-26T14:11:04.263Z,102317.38
2022-11-26T14:13:31.750Z,102304.16
2022-11-26T14:16:09.600Z,102302.47
2022-11-26T14:18:49.206Z,102309.63
2022-11-26T14:21:17.632Z,102318.16
2022-11-26T14:23:47.572Z,102309.06
2022-11-26T14:26:31.298Z,102307.16
2022-11-26T14:29:07.696Z,102311.03
2022-11-26T14:31:38.470Z,102301.84
2022-11-26T14:34:19.102Z,102285.88
2022-11-26T14:36:55.444Z,102282.31
2022-11-26T14:39:22.741Z,102297.28
2022-11-26T14:41:53.984Z,102292.97
2022-11-26T14:44:23.066Z,102302.16
2022-11-26T14:46:54.239Z,102296.69
2022-11-26T14:49:21.398Z,102303.97
2022-11-26T14:51:53.437Z,102302.91
2022-11-26T14:54:35.468Z,102313.72
2022-11-26T14:57:32.077Z,102307.72
2022-11-26T15:00:01.461Z,102315.44
2022-11-26T15:02:30.861Z,102311.56
2022-11-26T15:05:00.622Z,102312.09
2022-11-26T15:07:29.415Z,102309.91
2022-11-26T15:10:06.558Z,102302.19
2022-11-26T15:12:35.478Z,102296.97
2022-11-26T15:15:03.756Z,102287.84
2022-11-26T15:17:34.157Z,102285.66
2022-11-26T15:20:05.332Z,102287.84
2022-11-26T15:22:40.378Z,102280.13
2022-11-26T15:25:22.378Z,102277.91
2022-11-26T15:28:01.771Z,102280.41
2022-11-26T15:30:31.873Z,102279.78
2022-11-26T15:33:02.130Z,102283.97
2022-11-26T15:35:30.324Z,102276.28
2022-11-26T15:37:57.658Z,102283.44
2022-11-26T15:40:31.876Z,102283.19
2022-11-26T15:43:06.550Z,102279.91
2022-11-26T15:45:39.481Z,102294.50
2022-11-26T15:48:27.087Z,102296.16
2022-11-26T15:50:57.491Z,102298.06
2022-11-26T15:53:28.539Z,102292.59
2022-11-26T15:55:56.184Z,102286.50
2022-11-26T15:58:33.381Z,102278.81
2022-11-26T16:01:02.303Z,102280.44
2022-11-26T16:03:36.176Z,102274.09
2022-11-26T16:06:06.694Z,102269.13
2022-11-26T16:08:34.508Z,102269.94
2022-11-26T16:11:04.644Z,102272.97
2022-11-26T16:13:32.471Z,102274.94
2022-11-26T16:16:01.526Z,102262.28
2022-11-26T16:18:35.339Z,102266.38
2022-11-26T16:21:16.962Z,102273.84
2022-11-26T16:23:52.221Z,102270.25
2022-11-26T16:26:19.795Z,102271.34
2022-11-26T16:28:47.553Z,102261.16
2022-11-26T16:31:15.595Z,102280.19
2022-11-26T16:33:43.220Z,102282.09
2022-11-26T16:36:16.946Z,102277.41
2022-11-26T16:38:44.308Z,102268.03
2022-11-26T16:41:13.027Z,102283.19
2022-11-26T16:43:40.381Z,102282.34
2022-11-26T16:46:14.230Z,102293.66
2022-11-26T16:48:42.506Z,102301.09
2022-11-26T16:51:09.896Z,102297.22
2022-11-26T16:53:37.362Z,102297.75
2022-11-26T16:56:05.462Z,102294.78
2022-11-26T16:58:35.197Z,102295.59
2022-11-26T17:01:02.701Z,102298.63
2022-11-26T17:03:33.128Z,102297.28
2022-11-26T17:06:03.537Z,102289.81
2022-11-26T17:08:30.837Z,102285.13
2022-11-26T17:10:58.176Z,102281.84
2022-11-26T17:13:25.426Z,102290.34
2022-11-26T17:15:52.683Z,102279.59
2022-11-26T17:18:22.414Z,102279.88
2022-11-26T17:20:50.715Z,102278.50
2022-11-26T17:23:18.282Z,102263.94
2022-11-26T17:25:46.910Z,102251.22
2022-11-26T17:28:15.042Z,102241.53
2022-11-26T17:30:43.676Z,102233.03
2022-11-26T17:33:11.203Z,102218.16
2022-11-26T17:35:38.968Z,102206.59
2022-11-26T17:38:18.151Z,102207.69
2022-11-26T17:40:46.330Z,102194.47
2022-11-26T17:43:14.088Z,102192.78
2022-11-26T17:45:41.850Z,102190.06
2022-11-26T17:48:13.531Z,102185.09
2022-11-26T17:50:41.357Z,102181.00
2022-11-26T17:53:08.658Z,102186.53
2022-11-26T17:55:35.923Z,102187.59
2022-11-26T17:58:03.144Z,102190.91
2022-11-26T18:00:30.810Z,102190.88
2022-11-26T18:02:58.370Z,102186.69
2022-11-26T18:05:25.861Z,102204.06
2022-11-26T18:07:53.206Z,102204.03
2022-11-26T18:10:21.951Z,102199.09
2022-11-26T18:12:51.850Z,102185.31
2022-11-26T18:15:23.861Z,102184.53
2022-11-26T18:17:53.638Z,102189.25
2022-11-26T18:20:27.790Z,102185.88
2022-11-26T18:22:57.436Z,102188.38
2022-11-26T18:25:25.252Z,102180.66
2022-11-26T18:27:52.930Z,102171.59
2022-11-26T18:30:21.015Z,102167.22
2022-11-26T18:32:48.315Z,102176.03
2022-11-26T18:35:15.525Z,102180.72
2022-11-26T18:37:43.066Z,102186.50
2022-11-26T18:40:13.453Z,102181.56
2022-11-26T18:42:40.848Z,102181.00
2022-11-26T18:45:09.885Z,102181.84
2022-11-26T18:47:37.692Z,102178.81
2022-11-26T18:50:06.044Z,102176.88
2022-11-26T18:52:33.503Z,102177.41
2022-11-26T18:55:04.547Z,102176.06
2022-11-26T18:57:32.418Z,102159.53
2022-11-26T18:59:59.692Z,102161.97
2022-11-26T19:02:27.372Z,102170.50
2022-11-26T19:04:54.609Z,102165.88
2022-11-26T19:07:22.001Z,102160.06
2022-11-26T19:09:49.386Z,102163.38
2022-11-26T19:12:16.548Z,102156.78
2022-11-26T19:14:43.885Z,102161.97
2022-11-26T19:17:11.222Z,102150.19
2022-11-26T19:19:38.789Z,102148.78
2022-11-26T19:22:06.261Z,102139.13
2022-11-26T19:24:33.569Z,102138.03
2022-11-26T19:27:00.782Z,102144.13
2022-11-26T19:29:28.032Z,102159.81
2022-11-26T19:31:55.231Z,102154.28
2022-11-26T19:34:22.500Z,102165.31
2022-11-26T19:36:50.281Z,102166.13
2022-11-26T19:39:18.289Z,102167.25
2022-11-26T19:41:45.591Z,102182.06
2022-11-26T19:44:12.824Z,102178.78
2022-11-26T19:46:41.412Z,102185.13
2022-11-26T19:49:12.257Z,102195.34
2022-11-26T19:51:40.169Z,102188.16
2022-11-26T19:54:07.627Z,102179.63
2022-11-26T19:56:35.285Z,102171.66
2022-11-26T19:59:03.252Z,102175.47
2022-11-26T20:01:32.273Z,102172.72
2022-11-26T20:04:01.462Z,102181.53
2022-11-26T20:06:30.207Z,102182.91
2022-11-26T20:09:00.693Z,102188.94
2022-11-26T20:11:29.035Z,102177.66
2022-11-26T20:13:57.443Z,102168.84
2022-11-26T20:16:27.114Z,102162.53
2022-11-26T20:18:55.273Z,102159.72
2022-11-26T20:21:26.069Z,102159.47
2022-11-26T20:23:54.765Z,102184.22
2022-11-26T20:26:27.942Z,102182.56
2022-11-26T20:28:56.990Z,102175.97
2022-11-26T20:31:24.640Z,102160.56
2022-11-26T20:33:53.125Z,102158.09
2022-11-26T20:36:22.879Z,102164.88
2022-11-26T20:38:55.022Z,102152.50
2022-11-26T20:41:23.705Z,102130.44
2022-11-26T20:43:56.565Z,102136.03
2022-11-26T20:46:26.364Z,102135.44
2022-11-26T20:48:53.820Z,102164.41
2022-11-26T20:51:22.144Z,102158.19
2022-11-26T20:53:50.914Z,102146.19
2022-11-26T20:56:21.646Z,102155.56
2022-11-26T20:58:49.683Z,102147.84
2022-11-26T21:01:24.445Z,102145.56
2022-11-26T21:03:52.817Z,102162.53
2022-11-26T21:06:29.030Z,102156.25
2022-11-26T21:08:59.731Z,102159.34
2022-11-26T21:11:30.212Z,102171.91
2022-11-26T21:13:58.710Z,102155.25
2022-11-26T21:16:26.145Z,102158.91
2022-11-26T21:18:54.724Z,102159.19
2022-11-26T21:21:23.141Z,102151.47
2022-11-26T21:23:50.834Z,102139.69
2022-11-26T21:26:20.147Z,102139.91
2022-11-26T21:28:55.527Z,102138.00
2022-11-26T21:31:23.200Z,102123.16
2022-11-26T21:33:59.003Z,102116.28
2022-11-26T21:36:27.010Z,102118.06
2022-11-26T21:38:54.306Z,102123.56
2022-11-26T21:41:22.237Z,102118.63
2022-11-26T21:43:49.754Z,102113.09
2022-11-26T21:46:23.115Z,102105.91
2022-11-26T21:48:52.973Z,102109.44
2022-11-26T21:51:20.476Z,102099.00
2022-11-26T21:53:49.624Z,102085.09
2022-11-26T21:56:19.384Z,102088.09
2022-11-26T21:58:46.849Z,102075.97
2022-11-26T22:01:33.890Z,102064.59
2022-11-26T22:04:09.568Z,102064.97
2022-11-26T22:06:37.132Z,102058.34
2022-11-26T22:09:05.235Z,102047.53
2022-11-26T22:11:35.911Z,102046.47
2022-11-26T22:14:04.249Z,102042.63
2022-11-26T22:16:31.594Z,102046.22
2022-11-26T22:19:00.059Z,102062.63
2022-11-26T22:21:34.405Z,102041.53
2022-11-26T22:24:03.550Z,102050.81
2022-11-26T22:26:32.015Z,102045.53
2022-11-26T22:28:59.767Z,102032.19
2022-11-26T22:31:35.604Z,102037.25
2022-11-26T22:34:14.105Z,102038.09
2022-11-26T22:36:43.619Z,102053.28
2022-11-26T22:39:13.253Z,102045.34
2022-11-26T22:41:41.174Z,102039.09
2022-11-26T22:44:09.128Z,102024.25
2022-11-26T22:46:38.435Z,102018.00
2022-11-26T22:49:07.891Z,102018.56
2022-11-26T22:51:35.336Z,102010.47
2022-11-26T22:54:05.578Z,102010.09
2022-11-26T22:56:33.585Z,101998.88
2022-11-26T22:59:01.481Z,102006.03
2022-11-26T23:01:31.500Z,102010.47
2022-11-26T23:04:00.779Z,101995.13
2022-11-26T23:06:29.438Z,101996.72
2022-11-26T23:08:58.474Z,101985.22
2022-11-26T23:11:28.894Z,101989.09
2022-11-26T23:13:56.746Z,101996.19
2022-11-26T23:16:25.523Z,102008.03
2022-11-26T23:18:56.831Z,102000.63
2022-11-26T23:21:33.072Z,101951.13
2022-11-26T23:24:00.811Z,101965.38
2022-11-26T23:26:30.590Z,101984.31
2022-11-26T23:28:59.522Z,101955.72
2022-11-26T23:31:29.945Z,101921.44
2022-11-26T23:33:57.697Z,101948.53
2022-11-26T23:36:25.991Z,101968.59
2022-11-26T23:38:54.024Z,101966.13
2022-11-26T23:41:21.741Z,101970.66
2022-11-26T23:43:48.990Z,101960.88
2022-11-26T23:46:19.304Z,101940.06
2022-11-26T23:48:47.492Z,101937.09
2022-11-26T23:51:17.788Z,101940.38
2022-11-26T23:53:46.151Z,101941.41
2022-11-26T23:56:19.061Z,101930.69
2022-11-26T23:58:51.039Z,101941.41
